Terminal Aerodrome Forecast
Issued by NWS

Home | Current Version | Previous Version | Text Only | Print | Product List | Glossary On
Versions: 1 2 3 4 5 6 7 8 9 10 11 12 13 14 15 16
000
FTUS41 KGYX 200800 AAA
TAFAUG
TAF AMD
KAUG 200843Z 2009/2106 33006KT P6SM SKC
     FM201800 20007KT P6SM SKC
     FM210100 VRB03KT P6SM SCT200=

USA.gov is the U.S. government's official web portal to all federal, state and local government web resources and services.